sensor_id;sensor_type;location;lat;lon;timestamp;pressure;altitude;pressure_sealevel;temperature;humidity
20228;BME280;12195;55.790;37.572;2023-06-22T00:00:03;99967.30;;;15.50;50.15
20228;BME280;12195;55.790;37.572;2023-06-22T00:02:39;99963.59;;;15.27;50.49
20228;BME280;12195;55.790;37.572;2023-06-22T00:05:22;99972.80;;;15.47;50.51
20228;BME280;12195;55.790;37.572;2023-06-22T00:07:55;99977.87;;;15.25;50.83
20228;BME280;12195;55.790;37.572;2023-06-22T00:10:37;99980.13;;;15.43;50.71
20228;BME280;12195;55.790;37.572;2023-06-22T00:13:19;99972.39;;;15.40;51.24
20228;BME280;12195;55.790;37.572;2023-06-22T00:15:52;99960.00;;;15.16;51.33
20228;BME280;12195;55.790;37.572;2023-06-22T00:18:35;99967.61;;;15.33;51.17
20228;BME280;12195;55.790;37.572;2023-06-22T00:21:07;99973.53;;;15.11;51.64
20228;BME280;12195;55.790;37.572;2023-06-22T00:23:53;99975.85;;;15.28;51.46
20228;BME280;12195;55.790;37.572;2023-06-22T00:26:26;99977.34;;;15.07;52.11
20228;BME280;12195;55.790;37.572;2023-06-22T00:28:59;99980.09;;;15.06;51.94
20228;BME280;12195;55.790;37.572;2023-06-22T00:31:43;99977.98;;;15.23;52.23
20228;BME280;12195;55.790;37.572;2023-06-22T00:34:17;99976.91;;;15.01;52.28
20228;BME280;12195;55.790;37.572;2023-06-22T00:36:49;99974.39;;;15.12;50.60
20228;BME280;12195;55.790;37.572;2023-06-22T00:39:33;99971.41;;;15.16;52.01
20228;BME280;12195;55.790;37.572;2023-06-22T00:42:06;99966.02;;;14.93;52.92
20228;BME280;12195;55.790;37.572;2023-06-22T00:44:50;99968.24;;;15.11;52.92
20228;BME280;12195;55.790;37.572;2023-06-22T00:47:36;99974.49;;;15.10;52.94
20228;BME280;12195;55.790;37.572;2023-06-22T00:50:23;99971.84;;;15.10;53.03
20228;BME280;12195;55.790;37.572;2023-06-22T00:53:07;99965.93;;;15.07;53.08
20228;BME280;12195;55.790;37.572;2023-06-22T00:55:42;99947.71;;;14.77;53.06
20228;BME280;12195;55.790;37.572;2023-06-22T00:58:27;99970.36;;;15.06;53.39
20228;BME280;12195;55.790;37.572;2023-06-22T01:01:00;99969.19;;;14.85;53.63
20228;BME280;12195;55.790;37.572;2023-06-22T01:03:43;99979.36;;;15.04;53.64
20228;BME280;12195;55.790;37.572;2023-06-22T01:06:34;99973.31;;;15.02;53.97
20228;BME280;12195;55.790;37.572;2023-06-22T01:12:00;99968.88;;;15.02;53.54
20228;BME280;12195;55.790;37.572;2023-06-22T01:14:50;99975.03;;;15.03;53.36
20228;BME280;12195;55.790;37.572;2023-06-22T01:17:32;99975.66;;;15.06;52.53
20228;BME280;12195;55.790;37.572;2023-06-22T01:20:07;99978.41;;;14.92;53.22
20228;BME280;12195;55.790;37.572;2023-06-22T01:26:05;99990.69;;;15.18;52.04
20228;BME280;12195;55.790;37.572;2023-06-22T01:28:50;99986.77;;;15.24;51.48
20228;BME280;12195;55.790;37.572;2023-06-22T01:31:26;99976.28;;;15.10;51.90
20228;BME280;12195;55.790;37.572;2023-06-22T01:34:11;99987.64;;;15.37;51.19
20228;BME280;12195;55.790;37.572;2023-06-22T01:36:45;99974.71;;;15.20;50.60
20228;BME280;12195;55.790;37.572;2023-06-22T01:39:29;99984.56;;;15.43;50.36
20228;BME280;12195;55.790;37.572;2023-06-22T01:42:04;99979.36;;;15.29;48.95
20228;BME280;12195;55.790;37.572;2023-06-22T01:44:47;99974.20;;;15.40;48.91
20228;BME280;12195;55.790;37.572;2023-06-22T01:47:21;99974.20;;;15.40;48.91
20228;BME280;12195;55.790;37.572;2023-06-22T01:50:06;99984.52;;;15.68;48.95
20228;BME280;12195;55.790;37.572;2023-06-22T01:52:39;99981.80;;;15.57;47.67
20228;BME280;12195;55.790;37.572;2023-06-22T01:55:23;99988.73;;;15.83;47.95
20228;BME280;12195;55.790;37.572;2023-06-22T01:57:56;99977.73;;;15.76;46.65
20228;BME280;12195;55.790;37.572;2023-06-22T02:00:40;99978.63;;;16.01;47.23
20228;BME280;12195;55.790;37.572;2023-06-22T02:03:17;99976.65;;;15.92;46.66
20228;BME280;12195;55.790;37.572;2023-06-22T02:06:03;99984.15;;;16.21;45.81
20228;BME280;12195;55.790;37.572;2023-06-22T02:08:54;99965.45;;;16.35;46.01
20228;BME280;12195;55.790;37.572;2023-06-22T02:11:40;99967.61;;;16.54;45.45
20228;BME280;12195;55.790;37.572;2023-06-22T02:14:24;99979.31;;;16.62;45.87
20228;BME280;12195;55.790;37.572;2023-06-22T02:16:58;99970.70;;;16.48;45.58
20228;BME280;12195;55.790;37.572;2023-06-22T02:19:44;99964.42;;;16.72;45.77
20228;BME280;12195;55.790;37.572;2023-06-22T02:22:17;99960.26;;;16.57;45.19
20228;BME280;12195;55.790;37.572;2023-06-22T02:25:03;99963.61;;;16.83;45.35
20228;BME280;12195;55.790;37.572;2023-06-22T02:27:45;99953.48;;;16.88;45.46
20228;BME280;12195;55.790;37.572;2023-06-22T02:30:30;99950.38;;;16.94;45.06
20228;BME280;12195;55.790;37.572;2023-06-22T02:33:03;99946.34;;;16.77;44.54
20228;BME280;12195;55.790;37.572;2023-06-22T02:35:45;99949.03;;;16.99;44.16
20228;BME280;12195;55.790;37.572;2023-06-22T02:38:19;99943.24;;;16.83;43.39
20228;BME280;12195;55.790;37.572;2023-06-22T02:41:06;99952.80;;;17.08;43.45
20228;BME280;12195;55.790;37.572;2023-06-22T02:43:50;99940.84;;;17.02;44.24
20228;BME280;12195;55.790;37.572;2023-06-22T02:46:33;99941.70;;;17.14;43.93
20228;BME280;12195;55.790;37.572;2023-06-22T02:49:06;99945.89;;;16.94;44.17
20228;BME280;12195;55.790;37.572;2023-06-22T02:51:49;99952.94;;;17.17;43.71
20228;BME280;12195;55.790;37.572;2023-06-22T02:54:23;99942.53;;;17.03;43.34
20228;BME280;12195;55.790;37.572;2023-06-22T02:56:56;99928.58;;;17.12;43.45
20228;BME280;12195;55.790;37.572;2023-06-22T02:59:44;99929.82;;;17.41;43.05
20228;BME280;12195;55.790;37.572;2023-06-22T03:02:14;99923.97;;;17.36;42.34
20228;BME280;12195;55.790;37.572;2023-06-22T03:04:57;99924.13;;;17.68;41.92
20228;BME280;12195;55.790;37.572;2023-06-22T03:07:32;99919.53;;;17.59;41.83
20228;BME280;12195;55.790;37.572;2023-06-22T03:10:17;99933.14;;;17.87;42.12
20228;BME280;12195;55.790;37.572;2023-06-22T03:13:01;99922.73;;;17.95;41.57
20228;BME280;12195;55.790;37.572;2023-06-22T03:15:46;99921.98;;;18.04;41.46
20228;BME280;12195;55.790;37.572;2023-06-22T03:18:19;99920.20;;;17.94;41.79
20228;BME280;12195;55.790;37.572;2023-06-22T03:21:03;99924.09;;;18.21;41.28
20228;BME280;12195;55.790;37.572;2023-06-22T03:23:36;99907.23;;;18.11;41.10
20228;BME280;12195;55.790;37.572;2023-06-22T03:26:21;99910.28;;;18.38;41.07
20228;BME280;12195;55.790;37.572;2023-06-22T03:28:55;99899.68;;;18.27;41.28
20228;BME280;12195;55.790;37.572;2023-06-22T03:31:39;99904.42;;;18.55;40.66
20228;BME280;12195;55.790;37.572;2023-06-22T03:34:12;99902.63;;;18.45;39.99
20228;BME280;12195;55.790;37.572;2023-06-22T03:36:55;99909.16;;;18.72;39.77
20228;BME280;12195;55.790;37.572;2023-06-22T03:39:37;99900.25;;;18.83;39.93
20228;BME280;12195;55.790;37.572;2023-06-22T03:42:21;99910.68;;;18.95;39.70
20228;BME280;12195;55.790;37.572;2023-06-22T03:44:54;99897.47;;;18.84;39.92
20228;BME280;12195;55.790;37.572;2023-06-22T03:47:36;99897.61;;;19.13;39.65
20228;BME280;12195;55.790;37.572;2023-06-22T03:50:09;99881.33;;;19.06;39.67
20228;BME280;12195;55.790;37.572;2023-06-22T03:52:52;99895.81;;;19.43;39.07
20228;BME280;12195;55.790;37.572;2023-06-22T03:55:35;99884.38;;;19.62;38.51
20228;BME280;12195;55.790;37.572;2023-06-22T03:58:19;99890.03;;;19.78;37.60
20228;BME280;12195;55.790;37.572;2023-06-22T04:00:52;99883.42;;;19.72;37.36
20228;BME280;12195;55.790;37.572;2023-06-22T04:03:35;99886.70;;;20.04;36.91
20228;BME280;12195;55.790;37.572;2023-06-22T04:06:08;99877.68;;;19.86;36.90
20228;BME280;12195;55.790;37.572;2023-06-22T04:08:51;99882.69;;;20.19;36.87
20228;BME280;12195;55.790;37.572;2023-06-22T04:11:24;99875.23;;;20.13;36.75
20228;BME280;12195;55.790;37.572;2023-06-22T04:14:09;99883.21;;;20.51;36.92
20228;BME280;12195;55.790;37.572;2023-06-22T04:16:52;99879.41;;;20.63;36.21
20228;BME280;12195;55.790;37.572;2023-06-22T04:19:25;99876.91;;;20.53;35.88
20228;BME280;12195;55.790;37.572;2023-06-22T04:22:08;99876.57;;;20.84;36.00
20228;BME280;12195;55.790;37.572;2023-06-22T04:24:51;99870.11;;;20.96;35.94
20228;BME280;12195;55.790;37.572;2023-06-22T04:27:25;99869.81;;;20.90;35.65
20228;BME280;12195;55.790;37.572;2023-06-22T04:30:08;99878.00;;;21.25;35.70
20228;BME280;12195;55.790;37.572;2023-06-22T04:32:45;99872.80;;;21.23;35.74
20228;BME280;12195;55.790;37.572;2023-06-22T04:35:32;99866.30;;;21.62;35.51
20228;BME280;12195;55.790;37.572;2023-06-22T04:38:05;99858.04;;;21.56;35.04
20228;BME280;12195;55.790;37.572;2023-06-22T04:40:48;99862.64;;;21.90;35.11
20228;BME280;12195;55.790;37.572;2023-06-22T04:43:21;99852.09;;;21.89;34.88
20228;BME280;12195;55.790;37.572;2023-06-22T04:46:05;99856.13;;;22.28;34.83
20228;BME280;12195;55.790;37.572;2023-06-22T04:48:38;99845.68;;;22.17;34.27
20228;BME280;12195;55.790;37.572;2023-06-22T04:51:23;99849.49;;;22.49;34.41
20228;BME280;12195;55.790;37.572;2023-06-22T04:53:59;99845.27;;;22.29;34.46
20228;BME280;12195;55.790;37.572;2023-06-22T04:56:42;99853.23;;;22.56;34.50
20228;BME280;12195;55.790;37.572;2023-06-22T04:59:16;99850.70;;;22.37;34.38
20228;BME280;12195;55.790;37.572;2023-06-22T05:01:49;99848.50;;;22.33;34.30
20228;BME280;12195;55.790;37.572;2023-06-22T05:04:34;99860.09;;;22.41;34.19
20228;BME280;12195;55.790;37.572;2023-06-22T05:07:09;99862.64;;;21.90;34.62
20228;BME280;12195;55.790;37.572;2023-06-22T05:09:52;99866.55;;;21.96;34.93
20228;BME280;12195;55.790;37.572;2023-06-22T05:12:25;99856.80;;;21.50;35.46
20228;BME280;12195;55.790;37.572;2023-06-22T05:15:02;99857.13;;;21.38;36.16
20228;BME280;12195;55.790;37.572;2023-06-22T05:17:47;99861.24;;;21.59;36.19
20228;BME280;12195;55.790;37.572;2023-06-22T05:20:21;99864.86;;;21.41;36.32
20228;BME280;12195;55.790;37.572;2023-06-22T05:23:04;99866.16;;;21.64;36.40
20228;BME280;12195;55.790;37.572;2023-06-22T05:25:48;99861.34;;;21.67;36.13
20228;BME280;12195;55.790;37.572;2023-06-22T05:28:31;99875.36;;;21.79;36.06
20228;BME280;12195;55.790;37.572;2023-06-22T05:31:05;99864.45;;;21.63;35.66
20228;BME280;12195;55.790;37.572;2023-06-22T05:33:52;99863.87;;;21.96;35.52
20228;BME280;12195;55.790;37.572;2023-06-22T05:36:25;99852.44;;;21.76;35.60
20228;BME280;12195;55.790;37.572;2023-06-22T05:39:13;99858.98;;;22.09;35.39
20228;BME280;12195;55.790;37.572;2023-06-22T05:41:47;99853.47;;;21.93;35.78
20228;BME280;12195;55.790;37.572;2023-06-22T05:44:30;99860.10;;;22.24;35.41
20228;BME280;12195;55.790;37.572;2023-06-22T05:47:04;99855.52;;;21.99;35.42
20228;BME280;12195;55.790;37.572;2023-06-22T05:49:37;99864.10;;;22.02;35.60
20228;BME280;12195;55.790;37.572;2023-06-22T05:52:22;99853.78;;;22.25;35.56
20228;BME280;12195;55.790;37.572;2023-06-22T05:54:55;99854.30;;;22.11;35.84
20228;BME280;12195;55.790;37.572;2023-06-22T05:57:40;99865.70;;;22.48;35.74
20228;BME280;12195;55.790;37.572;2023-06-22T06:00:24;99871.49;;;22.61;35.24
20228;BME280;12195;55.790;37.572;2023-06-22T06:03:09;99868.14;;;22.59;35.66
20228;BME280;12195;55.790;37.572;2023-06-22T06:05:45;99857.50;;;22.32;35.47
20228;BME280;12195;55.790;37.572;2023-06-22T06:08:31;99859.96;;;22.60;35.42
20228;BME280;12195;55.790;37.572;2023-06-22T06:11:04;99853.55;;;22.01;36.27
20228;BME280;12195;55.790;37.572;2023-06-22T06:13:48;99850.34;;;22.50;35.66
20228;BME280;12195;55.790;37.572;2023-06-22T06:16:33;99859.59;;;22.55;35.88
20228;BME280;12195;55.790;37.572;2023-06-22T06:19:06;99847.23;;;22.45;35.46
20228;BME280;12195;55.790;37.572;2023-06-22T06:21:50;99857.25;;;22.78;35.36
20228;BME280;12195;55.790;37.572;2023-06-22T06:24:33;99852.25;;;22.83;35.31
20228;BME280;12195;55.790;37.572;2023-06-22T06:27:17;99860.19;;;22.92;34.80
20228;BME280;12195;55.790;37.572;2023-06-22T06:29:50;99847.52;;;22.77;35.17
20228;BME280;12195;55.790;37.572;2023-06-22T06:32:35;99853.77;;;23.11;34.37
20228;BME280;12195;55.790;37.572;2023-06-22T06:35:11;99838.16;;;23.06;34.67
20228;BME280;12195;55.790;37.572;2023-06-22T06:37:54;99844.41;;;23.48;34.24
20228;BME280;12195;55.790;37.572;2023-06-22T06:40:27;99849.30;;;23.53;33.64
20228;BME280;12195;55.790;37.572;2023-06-22T06:43:12;99853.48;;;23.97;32.49
20228;BME280;12195;55.790;37.572;2023-06-22T06:45:45;99841.58;;;23.99;32.35
20228;BME280;12195;55.790;37.572;2023-06-22T06:48:29;99848.48;;;24.50;32.29
20228;BME280;12195;55.790;37.572;2023-06-22T06:51:02;99840.76;;;24.39;31.97
20228;BME280;12195;55.790;37.572;2023-06-22T06:53:45;99837.05;;;24.88;31.86
20228;BME280;12195;55.790;37.572;2023-06-22T06:56:18;99841.87;;;25.00;31.03
20228;BME280;12195;55.790;37.572;2023-06-22T06:59:01;99839.31;;;25.62;30.53
20228;BME280;12195;55.790;37.572;2023-06-22T07:01:34;99833.55;;;25.73;29.34
20228;BME280;12195;55.790;37.572;2023-06-22T07:04:19;99837.10;;;26.26;29.48
20228;BME280;12195;55.790;37.572;2023-06-22T07:06:53;99835.97;;;26.21;29.04
20228;BME280;12195;55.790;37.572;2023-06-22T07:09:36;99842.93;;;26.75;28.68
20228;BME280;12195;55.790;37.572;2023-06-22T07:12:19;99838.09;;;26.85;28.27
20228;BME280;12195;55.790;37.572;2023-06-22T07:14:54;99840.13;;;26.68;28.01
20228;BME280;12195;55.790;37.572;2023-06-22T07:17:37;99835.59;;;27.12;28.20
20228;BME280;12195;55.790;37.572;2023-06-22T07:20:11;99831.23;;;26.97;27.66
20228;BME280;12195;55.790;37.572;2023-06-22T07:22:55;99833.40;;;27.45;27.38
20228;BME280;12195;55.790;37.572;2023-06-22T07:25:28;99827.41;;;26.91;27.22
20228;BME280;12195;55.790;37.572;2023-06-22T07:28:12;99834.27;;;27.31;27.38
20228;BME280;12195;55.790;37.572;2023-06-22T07:30:57;99831.34;;;27.32;27.69
20228;BME280;12195;55.790;37.572;2023-06-22T07:33:30;99825.20;;;27.09;27.29
20228;BME280;12195;55.790;37.572;2023-06-22T07:36:03;99803.74;;;27.30;27.21
20228;BME280;12195;55.790;37.572;2023-06-22T07:38:38;99824.64;;;27.43;26.82
20228;BME280;12195;55.790;37.572;2023-06-22T07:41:20;99818.36;;;27.86;26.72
20228;BME280;12195;55.790;37.572;2023-06-22T07:44:04;99829.41;;;27.91;26.56
20228;BME280;12195;55.790;37.572;2023-06-22T07:46:38;99829.75;;;27.52;26.48
20228;BME280;12195;55.790;37.572;2023-06-22T07:49:23;99832.48;;;27.88;26.79
20228;BME280;12195;55.790;37.572;2023-06-22T07:51:56;99825.43;;;27.72;26.34
20228;BME280;12195;55.790;37.572;2023-06-22T07:54:42;99826.41;;;28.21;26.22
20228;BME280;12195;55.790;37.572;2023-06-22T07:57:25;99822.29;;;28.25;26.28
20228;BME280;12195;55.790;37.572;2023-06-22T08:00:08;99812.58;;;27.89;26.01
20228;BME280;12195;55.790;37.572;2023-06-22T08:03:00;99824.34;;;28.02;26.22
20228;BME280;12195;55.790;37.572;2023-06-22T08:05:35;99812.55;;;27.53;26.47
20228;BME280;12195;55.790;37.572;2023-06-22T08:08:19;99831.67;;;27.87;26.46
20228;BME280;12195;55.790;37.572;2023-06-22T08:10:52;99815.81;;;27.49;26.43
20228;BME280;12195;55.790;37.572;2023-06-22T08:13:35;99818.92;;;27.81;26.56
20228;BME280;12195;55.790;37.572;2023-06-22T08:16:08;99803.64;;;27.38;26.55
20228;BME280;12195;55.790;37.572;2023-06-22T08:18:51;99809.05;;;27.74;26.77
20228;BME280;12195;55.790;37.572;2023-06-22T08:21:24;99810.86;;;27.52;26.74
20228;BME280;12195;55.790;37.572;2023-06-22T08:24:07;99803.95;;;28.00;26.48
20228;BME280;12195;55.790;37.572;2023-06-22T08:26:40;99796.52;;;27.66;26.61
20228;BME280;12195;55.790;37.572;2023-06-22T08:29:27;99805.05;;;28.05;26.49
20228;BME280;12195;55.790;37.572;2023-06-22T08:32:00;99794.22;;;27.49;26.74
20228;BME280;12195;55.790;37.572;2023-06-22T08:34:45;99794.63;;;27.67;27.02
20228;BME280;12195;55.790;37.572;2023-06-22T08:37:18;99784.66;;;27.17;27.61
20228;BME280;12195;55.790;37.572;2023-06-22T08:40:04;99803.91;;;27.43;27.42
20228;BME280;12195;55.790;37.572;2023-06-22T08:42:52;99799.30;;;27.23;27.62
20228;BME280;12195;55.790;37.572;2023-06-22T08:45:25;99790.85;;;26.60;27.92
20228;BME280;12195;55.790;37.572;2023-06-22T08:48:09;99785.66;;;26.73;28.13
20228;BME280;12195;55.790;37.572;2023-06-22T08:50:43;99781.26;;;26.20;28.58
20228;BME280;12195;55.790;37.572;2023-06-22T08:53:26;99784.09;;;26.41;28.91
20228;BME280;12195;55.790;37.572;2023-06-22T08:56:10;99797.45;;;26.35;29.14
20228;BME280;12195;55.790;37.572;2023-06-22T08:58:45;99782.30;;;25.97;29.03
20228;BME280;12195;55.790;37.572;2023-06-22T09:01:19;99778.48;;;25.83;29.36
20228;BME280;12195;55.790;37.572;2023-06-22T09:03:51;99778.19;;;25.78;29.43
20228;BME280;12195;55.790;37.572;2023-06-22T09:06:41;99782.06;;;26.06;29.14
20228;BME280;12195;55.790;37.572;2023-06-22T09:09:27;99779.05;;;26.01;29.16
20228;BME280;12195;55.790;37.572;2023-06-22T09:12:00;99759.08;;;25.43;29.98
20228;BME280;12195;55.790;37.572;2023-06-22T09:14:45;99759.21;;;26.02;29.53
20228;BME280;12195;55.790;37.572;2023-06-22T09:17:18;99758.00;;;26.05;28.98
20228;BME280;12195;55.790;37.572;2023-06-22T09:20:01;99758.55;;;26.37;28.72
20228;BME280;12195;55.790;37.572;2023-06-22T09:22:38;99755.03;;;26.00;28.73
20228;BME280;12195;55.790;37.572;2023-06-22T09:25:21;99756.73;;;26.15;28.85
20228;BME280;12195;55.790;37.572;2023-06-22T09:27:55;99748.24;;;25.81;29.42
20228;BME280;12195;55.790;37.572;2023-06-22T09:30:38;99760.02;;;26.03;28.86
20228;BME280;12195;55.790;37.572;2023-06-22T09:33:10;99755.22;;;25.68;28.78
20228;BME280;12195;55.790;37.572;2023-06-22T09:35:55;99767.55;;;25.85;28.79
20228;BME280;12195;55.790;37.572;2023-06-22T09:38:27;99759.25;;;25.41;29.06
20228;BME280;12195;55.790;37.572;2023-06-22T09:41:10;99757.80;;;25.61;29.58
20228;BME280;12195;55.790;37.572;2023-06-22T09:43:53;99751.73;;;25.59;29.82
20228;BME280;12195;55.790;37.572;2023-06-22T09:46:27;99753.70;;;25.43;30.31
20228;BME280;12195;55.790;37.572;2023-06-22T09:49:10;99756.42;;;25.65;30.11
20228;BME280;12195;55.790;37.572;2023-06-22T09:51:43;99751.75;;;25.29;30.41
20228;BME280;12195;55.790;37.572;2023-06-22T09:54:26;99757.34;;;25.50;30.16
20228;BME280;12195;55.790;37.572;2023-06-22T09:56:59;99741.30;;;25.26;29.97
20228;BME280;12195;55.790;37.572;2023-06-22T09:59:43;99745.77;;;25.49;30.60
20228;BME280;12195;55.790;37.572;2023-06-22T10:02:27;99745.38;;;25.52;30.05
20228;BME280;12195;55.790;37.572;2023-06-22T10:05:02;99741.50;;;25.32;30.14
20228;BME280;12195;55.790;37.572;2023-06-22T10:07:45;99740.68;;;25.54;29.96
20228;BME280;12195;55.790;37.572;2023-06-22T10:10:19;99736.77;;;25.34;30.43
20228;BME280;12195;55.790;37.572;2023-06-22T10:13:08;99738.23;;;25.67;30.00
20228;BME280;12195;55.790;37.572;2023-06-22T10:15:46;99739.06;;;25.45;29.51
20228;BME280;12195;55.790;37.572;2023-06-22T10:18:35;99739.90;;;25.68;29.82
20228;BME280;12195;55.790;37.572;2023-06-22T10:21:08;99720.92;;;25.39;29.52
20228;BME280;12195;55.790;37.572;2023-06-22T10:23:51;99715.56;;;25.62;29.77
20228;BME280;12195;55.790;37.572;2023-06-22T10:26:26;99711.99;;;25.47;29.97
20228;BME280;12195;55.790;37.572;2023-06-22T10:29:12;99712.64;;;25.71;30.03
20228;BME280;12195;55.790;37.572;2023-06-22T10:31:47;99700.80;;;25.58;29.47
20228;BME280;12195;55.790;37.572;2023-06-22T10:34:32;99708.80;;;25.88;29.60
20228;BME280;12195;55.790;37.572;2023-06-22T10:37:06;99695.54;;;25.64;29.54
20228;BME280;12195;55.790;37.572;2023-06-22T10:39:52;99706.96;;;25.89;29.71
20228;BME280;12195;55.790;37.572;2023-06-22T10:42:42;99702.96;;;25.85;29.88
20228;BME280;12195;55.790;37.572;2023-06-22T10:45:15;99683.27;;;25.84;29.35
20228;BME280;12195;55.790;37.572;2023-06-22T10:47:58;99693.61;;;26.18;29.34
20228;BME280;12195;55.790;37.572;2023-06-22T10:50:32;99689.78;;;26.12;28.98
20228;BME280;12195;55.790;37.572;2023-06-22T10:53:19;99686.95;;;26.43;28.85
20228;BME280;12195;55.790;37.572;2023-06-22T10:55:52;99683.11;;;26.23;28.96
20228;BME280;12195;55.790;37.572;2023-06-22T10:58:37;99678.33;;;26.47;29.10
20228;BME280;12195;55.790;37.572;2023-06-22T11:01:11;99669.75;;;26.29;28.92
20228;BME280;12195;55.790;37.572;2023-06-22T11:03:58;99678.17;;;26.63;28.71
20228;BME280;12195;55.790;37.572;2023-06-22T11:06:31;99665.67;;;26.48;28.71
20228;BME280;12195;55.790;37.572;2023-06-22T11:09:17;99666.80;;;26.82;28.64
20228;BME280;12195;55.790;37.572;2023-06-22T11:11:55;99667.14;;;27.08;28.50
20228;BME280;12195;55.790;37.572;2023-06-22T11:14:39;99657.70;;;27.54;27.76
20228;BME280;12195;55.790;37.572;2023-06-22T11:17:22;99657.45;;;28.19;26.92
20228;BME280;12195;55.790;37.572;2023-06-22T11:19:55;99650.56;;;29.32;25.20
20228;BME280;12195;55.790;37.572;2023-06-22T11:22:39;99641.52;;;31.00;24.11
20228;BME280;12195;55.790;37.572;2023-06-22T11:25:12;99629.40;;;32.99;20.95
20228;BME280;12195;55.790;37.572;2023-06-22T11:27:59;99642.33;;;34.50;20.19
20228;BME280;12195;55.790;37.572;2023-06-22T11:30:43;99635.26;;;35.56;18.64
20228;BME280;12195;55.790;37.572;2023-06-22T11:33:16;99636.77;;;36.67;17.24
20228;BME280;12195;55.790;37.572;2023-06-22T11:36:00;99628.69;;;37.69;17.14
20228;BME280;12195;55.790;37.572;2023-06-22T11:38:33;99626.70;;;36.89;16.97
20228;BME280;12195;55.790;37.572;2023-06-22T11:41:18;99627.34;;;38.39;16.71
20228;BME280;12195;55.790;37.572;2023-06-22T11:43:51;99606.00;;;39.08;15.24
20228;BME280;12195;55.790;37.572;2023-06-22T11:46:35;99615.15;;;41.22;15.09
20228;BME280;12195;55.790;37.572;2023-06-22T11:49:10;99611.16;;;41.82;13.14
20228;BME280;12195;55.790;37.572;2023-06-22T11:51:57;99608.23;;;43.80;13.12
20228;BME280;12195;55.790;37.572;2023-06-22T11:54:33;99588.80;;;43.98;11.86
20228;BME280;12195;55.790;37.572;2023-06-22T11:57:07;99603.59;;;44.94;11.07
20228;BME280;12195;55.790;37.572;2023-06-22T11:59:50;99594.97;;;46.10;11.17
20228;BME280;12195;55.790;37.572;2023-06-22T12:02:23;99577.34;;;45.49;10.75
20228;BME280;12195;55.790;37.572;2023-06-22T12:05:10;99581.17;;;46.36;11.17
20228;BME280;12195;55.790;37.572;2023-06-22T12:07:44;99568.05;;;45.67;10.47
20228;BME280;12195;55.790;37.572;2023-06-22T12:10:26;99577.05;;;47.54;10.46
20228;BME280;12195;55.790;37.572;2023-06-22T12:13:01;99562.31;;;47.36;9.64
20228;BME280;12195;55.790;37.572;2023-06-22T12:15:48;99569.80;;;49.29;9.51
20228;BME280;12195;55.790;37.572;2023-06-22T12:18:20;99559.73;;;48.20;9.08
20228;BME280;12195;55.790;37.572;2023-06-22T12:20:54;99564.02;;;50.31;9.59
20228;BME280;12195;55.790;37.572;2023-06-22T12:23:40;99566.70;;;50.28;8.53
20228;BME280;12195;55.790;37.572;2023-06-22T12:26:14;99545.26;;;47.38;9.46
20228;BME280;12195;55.790;37.572;2023-06-22T12:28:58;99557.19;;;46.96;10.19
20228;BME280;12195;55.790;37.572;2023-06-22T12:31:31;99551.00;;;43.38;11.83
20228;BME280;12195;55.790;37.572;2023-06-22T12:34:14;99550.17;;;42.59;12.73
20228;BME280;12195;55.790;37.572;2023-06-22T12:36:47;99537.75;;;41.08;13.75
20228;BME280;12195;55.790;37.572;2023-06-22T12:39:21;99524.48;;;42.11;12.90
20228;BME280;12195;55.790;37.572;2023-06-22T12:42:05;99543.61;;;44.30;11.94
20228;BME280;12195;55.790;37.572;2023-06-22T12:44:41;99517.44;;;45.12;10.90
20228;BME280;12195;55.790;37.572;2023-06-22T12:47:23;99522.09;;;47.97;10.08
20228;BME280;12195;55.790;37.572;2023-06-22T12:49:58;99510.01;;;48.89;8.91
20228;BME280;12195;55.790;37.572;2023-06-22T12:52:43;99515.85;;;51.53;8.33
20228;BME280;12195;55.790;37.572;2023-06-22T12:55:17;99496.11;;;50.94;7.87
20228;BME280;12195;55.790;37.572;2023-06-22T12:57:50;99503.34;;;51.62;7.51
20228;BME280;12195;55.790;37.572;2023-06-22T13:00:23;99519.23;;;52.83;8.13
20228;BME280;12195;55.790;37.572;2023-06-22T13:03:08;99514.78;;;52.01;7.84
20228;BME280;12195;55.790;37.572;2023-06-22T13:05:43;99504.44;;;51.46;7.24
20228;BME280;12195;55.790;37.572;2023-06-22T13:08:25;99509.83;;;53.29;6.92
20228;BME280;12195;55.790;37.572;2023-06-22T13:11:00;99502.31;;;52.79;6.43
20228;BME280;12195;55.790;37.572;2023-06-22T13:13:33;99496.52;;;53.07;5.92
20228;BME280;12195;55.790;37.572;2023-06-22T13:16:16;99502.83;;;54.47;5.97
20228;BME280;12195;55.790;37.572;2023-06-22T13:18:58;99495.77;;;54.34;5.97
20228;BME280;12195;55.790;37.572;2023-06-22T13:21:31;99481.66;;;52.87;6.09
20228;BME280;12195;55.790;37.572;2023-06-22T13:24:15;99481.83;;;54.19;6.14
20228;BME280;12195;55.790;37.572;2023-06-22T13:26:47;99475.80;;;52.96;6.15
20228;BME280;12195;55.790;37.572;2023-06-22T13:29:30;99479.34;;;53.91;6.18
20228;BME280;12195;55.790;37.572;2023-06-22T13:32:04;99464.85;;;52.72;6.13
20228;BME280;12195;55.790;37.572;2023-06-22T13:34:50;99468.74;;;54.56;6.17
20228;BME280;12195;55.790;37.572;2023-06-22T13:37:35;99471.38;;;52.95;6.59
20228;BME280;12195;55.790;37.572;2023-06-22T13:40:08;99464.14;;;52.94;6.17
20228;BME280;12195;55.790;37.572;2023-06-22T13:42:52;99469.98;;;54.84;5.63
20228;BME280;12195;55.790;37.572;2023-06-22T13:45:26;99455.25;;;53.71;5.72
20228;BME280;12195;55.790;37.572;2023-06-22T13:48:10;99465.30;;;54.95;5.58
20228;BME280;12195;55.790;37.572;2023-06-22T13:50:42;99450.96;;;53.36;5.98
20228;BME280;12195;55.790;37.572;2023-06-22T13:53:15;99454.59;;;53.36;5.92
20228;BME280;12195;55.790;37.572;2023-06-22T13:55:58;99466.46;;;54.39;5.96
20228;BME280;12195;55.790;37.572;2023-06-22T13:58:32;99451.31;;;52.77;6.25